createdAt,value
2024-01-12T09:39:32.730Z,-6.96
2024-01-12T09:42:03.784Z,-3.96
2024-01-12T09:47:41.666Z,-3.38
2024-01-12T09:50:23.617Z,-4.24
2024-01-12T09:53:24.470Z,-4.90
2024-01-12T09:56:08.881Z,-5.41
2024-01-12T09:59:04.636Z,-5.87
2024-01-12T10:01:40.323Z,-6.17
2024-01-12T10:04:40.596Z,-6.40
2024-01-12T10:07:24.306Z,-6.59
2024-01-12T10:10:05.211Z,-6.71
2024-01-12T10:13:23.826Z,-6.79
2024-01-12T10:16:46.504Z,-5.27
2024-01-12T10:19:22.230Z,-2.04
2024-01-12T10:22:05.085Z,-2.24
2024-01-12T10:25:28.412Z,-3.33
2024-01-12T10:28:41.030Z,-4.22
2024-01-12T10:32:05.039Z,-4.92
2024-01-12T10:35:18.224Z,-5.26
2024-01-12T10:38:09.931Z,-5.57
2024-01-12T10:40:57.249Z,-5.83
2024-01-12T10:43:54.258Z,-6.03
2024-01-12T10:46:41.570Z,-6.16
2024-01-12T10:49:39.850Z,-6.28
2024-01-12T10:52:44.424Z,-6.33
2024-01-12T10:55:20.393Z,-6.33
2024-01-12T10:58:21.197Z,-6.35
2024-01-12T11:00:55.016Z,-6.39
2024-01-12T11:03:41.159Z,-6.44
2024-01-12T11:06:23.192Z,-6.49
2024-01-12T11:09:34.285Z,-6.55
2024-01-12T11:12:09.724Z,-6.57
2024-01-12T11:15:16.064Z,-6.56
2024-01-12T11:18:07.516Z,-6.51
2024-01-12T11:20:43.645Z,-6.48
2024-01-12T11:23:19.054Z,-6.48
2024-01-12T11:25:50.015Z,-6.47
2024-01-12T11:28:39.237Z,-6.43
2024-01-12T11:31:29.852Z,-6.45
2024-01-12T11:34:03.923Z,-6.51
2024-01-12T11:36:45.173Z,-6.56
2024-01-12T20:36:22.287Z,-8.10
